Архив погоды в Чердыне

Метеограмма Чердынь
Среда, 21 Августа
Время местн. Темп Ветер Видим Явления Облачность нижн/средн/верх Атм. давл. Влжн Точка росы ВНГО R Сост. почвы Tg s
Напр Скр Прв ур.ст ур.м изм
23:00 +16.5° Ю 2 - 50 км - облачно с прояснениями 748 766 -0.5 71% +11.3° 600 м - - - -
20:00 +18.7° Ю 1 - 50 км - преимущественно облачно 748 766 +0.1 60% +10.7° 600 м 0 - - -
17:00 +20.8° Ю-В 2 - более 50 км - облачно 748 766 -0.8 52% +10.5° 600 м - - - -
14:00 +20.3° В 2 - 50 км - облачно с прояснениями 749 767 -0.4 53% +10.5° 600 м - - - -
11:00 +17.1° В 1 - 50 км - облачно с прояснениями 749 768 +0.2 72% +12° - - - - -
08:00 +13.7° В 1 - 50 км - переменная облачность 749 768 +0.6 82% +10.6° - 0 Влажная (без луж) - -
05:00 +12.5° В 2 - 50 км - незначительная облачность 749 767 -0.1 91% +11.1° более 2.5 км - - - -
02:00 +13.6° В 2 - 20 км - ясно 749 767 +0.6 84% +11° более 2.5 км - - - -
Вторник, 20 Августа
Время местн. Темп Ветер Видим Явления Облачность нижн/средн/верх Атм. давл. Влжн Точка росы ВНГО R Сост. почвы Tg s
Напр Скр Прв ур.ст ур.м изм
23:00 +14.6° В 2 - 50 км - незначительная облачность 748 766 +0.6 86% +12.2° 600 м - - - -
20:00 +18.1° В 2 - более 50 км - преимущественно облачно 747 766 +0.5 78% +14.3° 600 м 0 - - -
17:00 +18.5° В 2 - 50 км облака рассеиваются {морось} преимущественно облачно 747 765 +0.1 80% +14.9° 600 м - - - -
14:00 +17.1° В 2 - 50 км небо без изменений {морось} облачно 747 765 +0.1 89% +15.3° 600 м - - - -
11:00 +16° В 2 - 10 км слабая непрерывная морось облачно 747 765 +0.2 94% +15.1° 600 м - - - -
08:00 +15.2° В 3 - 4 км дымка преимущественно облачно 747 765 -0.3 94% +14.3° 600 м 1 Влажная (без луж) - -
05:00 +14.3° В 3 - 2 км дымка {ливневые осадки} преимущественно облачно 747 766 -1.1 95% +13.5° 600 м - - - -
02:00 +14.3° В 3 - 1 км дымка {ливневые осадки} облачно 748 767 -1.1 94% +13.4° 600 м - - - -
Понедельник, 19 Августа
Время местн. Темп Ветер Видим Явления Облачность нижн/средн/верх Атм. давл. Влжн Точка росы ВНГО R Сост. почвы Tg s
Напр Скр Прв ур.ст ур.м изм
23:00 +15.1° В,Ю-В 2 - 20 км ливневый дождь облачно 749 768 -0.5 88% +13.1° 600 м - - - -
20:00 +16.7° В 3 - 50 км - облачно 750 768 -0.5 73% +11.8° 600 м 0 - - -
17:00 +18.1° В 3 - 50 км небо без изменений {дождь} преимущественно облачно 750 768 -0.5 64% +11.3° 600 м - - - -
14:00 +19° В 4 - 50 км облака развиваются {дождь} преимущественно облачно 751 769 -0.5 60% +11° 600 м - - - -
11:00 +16.8° В 2 - 50 км - преимущественно облачно 751 770 -0.2 73% +12° 600 м - - - -
08:00 +14.4° В 2 - 50 км - облачно 751 770 +0.1 83% +11.5° 600 м 0 Сухая (без трещин) - -
05:00 +14.5° В 2 - 50 км - преимущественно облачно 751 770 +0.4 91% +13.1° 600 м - - - -
02:00 +15° В 1 - 50 км - облачно 751 769 +0.8 79% +11.4° 600 м - - - -
Воскресенье, 18 Августа
Время местн. Темп Ветер Видим Явления Облачность нижн/средн/верх Атм. давл. Влжн Точка росы ВНГО R Сост. почвы Tg s
Напр Скр Прв ур.ст ур.м изм
23:00 +16.4° штиль 0 - 50 км - преимущественно облачно 750 769 +0.7 71% +11.2° - - - - -
20:00 +19.2° С 1 - 50 км - преимущественно облачно 750 768 +0.4 48% +7.9° 600 м 0 - - -